Time;durP1;ratioP1;P1;durP2;ratioP2;P2;SDS_P1;SDS_P2;PMS_P1;PMS_P2;Temp;Humidity;BMP_temperature;BMP_pressure;BME280_temperature;BME280_humidity;BME280_pressure;Samples;Min_cycle;Max_cycle;Signal;HPM_P1;HPM_P2
2023/05/29 00:00:47;;;;;;;7.15;2.03;;;;;;;18.45;98.21;99383.72;5132180;27;20450;-81
2023/05/29 00:03:12;;;;;;;4.25;2.20;;;;;;;18.19;97.68;99343.22;5131898;27;20115;-81
2023/05/29 00:05:38;;;;;;;2.72;1.58;;;;;;;17.94;98.99;99349.81;5132490;27;20049;-82
2023/05/29 00:08:04;;;;;;;2.63;1.75;;;;;;;18.05;100.00;99360.78;5131963;27;20026;-84
2023/05/29 00:10:31;;;;;;;2.47;1.95;;;;;;;18.05;99.25;99333.25;5131762;27;20031;-82
2023/05/29 00:12:57;;;;;;;3.05;1.77;;;;;;;18.01;100.00;99388.59;5131720;27;20118;-83
2023/05/29 00:15:22;;;;;;;4.20;2.42;;;;;;;17.78;100.00;99348.81;5131666;27;20054;-82
2023/05/29 00:17:49;;;;;;;4.80;2.17;;;;;;;17.86;100.00;99354.66;5132331;27;20543;-82
2023/05/29 00:20:14;;;;;;;3.17;1.67;;;;;;;17.85;100.00;99360.91;5131603;27;20050;-82
2023/05/29 00:22:40;;;;;;;2.40;1.83;;;;;;;17.86;100.00;99349.31;5131922;27;20473;-82
2023/05/29 00:25:07;;;;;;;4.55;2.30;;;;;;;18.03;100.00;99381.38;5131347;27;20393;-83
2023/05/29 00:27:33;;;;;;;8.38;2.95;;;;;;;17.69;100.00;99348.34;5131824;27;20030;-82
2023/05/29 00:30:03;;;;;;;2.75;1.70;;;;;;;17.90;100.00;99356.25;5127199;27;20110;-82
2023/05/29 00:32:28;;;;;;;3.40;2.38;;;;;;;18.06;99.72;99364.34;5131165;27;20066;-82
2023/05/29 00:34:55;;;;;;;2.70;1.75;;;;;;;17.99;99.42;99368.25;5131199;27;20062;-82
2023/05/29 00:37:21;;;;;;;3.75;2.38;;;;;;;17.95;100.00;99391.59;5131314;27;20027;-81
2023/05/29 00:39:47;;;;;;;5.32;2.85;;;;;;;17.87;100.00;99383.94;5131232;27;20029;-82
2023/05/29 00:42:13;;;;;;;3.67;1.65;;;;;;;17.92;100.00;99385.50;5129121;27;20092;-83
2023/05/29 00:44:38;;;;;;;3.67;2.03;;;;;;;17.81;99.46;99343.34;5131295;27;20027;-82
2023/05/29 00:47:04;;;;;;;2.63;1.85;;;;;;;17.94;99.48;99370.31;5131374;27;20027;-81
2023/05/29 00:49:30;;;;;;;2.88;2.03;;;;;;;17.94;99.97;99351.63;5131368;27;20035;-82
2023/05/29 00:51:55;;;;;;;5.93;2.35;;;;;;;18.34;98.84;99371.78;5131621;27;20058;-82
2023/05/29 00:54:26;;;;;;;4.65;2.13;;;;;;;18.32;98.06;99356.78;5131490;27;20495;-82
2023/05/29 00:56:52;;;;;;;10.48;2.70;;;;;;;18.37;96.72;99341.41;5131502;27;20023;-82
2023/05/29 00:59:21;;;;;;;3.50;2.47;;;;;;;18.29;97.96;99364.94;5131037;27;20034;-81
2023/05/29 01:01:48;;;;;;;2.85;1.65;;;;;;;18.22;97.64;99345.72;5131125;27;20404;-82
2023/05/29 01:04:15;;;;;;;2.83;1.77;;;;;;;18.50;97.15;99365.63;5131297;27;20043;-82
2023/05/29 01:06:41;;;;;;;2.60;1.77;;;;;;;18.46;96.66;99358.72;5130968;27;20508;-82
2023/05/29 01:09:06;;;;;;;7.13;1.52;;;;;;;18.51;96.18;99362.88;5130713;27;20059;-82
2023/05/29 01:11:55;;;;;;;4.78;2.03;;;;;;;18.68;96.17;99380.69;5130679;27;20113;-82
2023/05/29 01:14:39;;;;;;;5.22;2.58;;;;;;;18.72;95.33;99376.91;5131125;27;20088;-82
2023/05/29 01:17:29;;;;;;;4.20;1.90;;;;;;;18.79;95.54;99383.63;5110500;28;20028;-82
2023/05/29 01:20:17;;;;;;;2.63;1.60;;;;;;;18.43;95.21;99320.56;5123963;28;20037;-82
2023/05/29 01:23:03;;;;;;;1.90;1.13;;;;;;;18.74;95.51;99382.19;5131043;27;20515;-82
2023/05/29 01:26:22;;;;;;;3.33;2.00;;;;;;;18.46;95.42;99318.66;5067279;28;20048;-84
2023/05/29 01:28:51;;;;;;;4.40;2.00;;;;;;;18.62;94.88;99314.25;5047525;28;20040;-82
2023/05/29 01:31:20;;;;;;;3.17;1.50;;;;;;;18.61;94.14;99309.81;5067097;28;20344;-81
2023/05/29 01:33:59;;;;;;;2.83;1.95;;;;;;;18.88;94.63;99368.09;5067422;28;20029;-81
2023/05/29 01:36:26;;;;;;;3.42;1.30;;;;;;;18.79;94.10;99359.59;5067438;28;20033;-82
2023/05/29 01:38:54;;;;;;;3.15;1.88;;;;;;;18.81;94.64;99367.53;5067173;28;20055;-82
2023/05/29 01:41:22;;;;;;;4.45;2.92;;;;;;;18.92;94.64;99362.50;5047451;28;20048;-81
2023/05/29 01:43:48;;;;;;;5.45;2.03;;;;;;;18.67;94.43;99340.69;5066148;28;20131;-81
2023/05/29 01:46:16;;;;;;;14.90;2.35;;;;;;;18.90;94.15;99360.84;5067630;28;20094;-81
2023/05/29 01:48:42;;;;;;;5.78;2.40;;;;;;;18.60;94.98;99316.13;5067635;28;20127;-82
2023/05/29 01:51:08;;;;;;;3.83;2.42;;;;;;;18.45;94.31;99290.25;5067547;28;20040;-82
2023/05/29 01:53:34;;;;;;;10.27;2.50;;;;;;;18.74;94.45;99347.44;5067246;28;20070;-82
2023/05/29 01:56:00;;;;;;;3.00;1.55;;;;;;;18.81;94.73;99364.00;5066972;28;20135;-81
2023/05/29 01:58:27;;;;;;;4.97;2.97;;;;;;;18.66;94.85;99347.88;5067091;28;20040;-81
2023/05/29 02:00:54;;;;;;;3.90;2.13;;;;;;;18.75;94.01;99334.00;5049982;28;20066;-81
2023/05/29 02:03:20;;;;;;;3.60;2.17;;;;;;;18.75;94.05;99339.34;5119467;28;20103;-81
2023/05/29 02:05:46;;;;;;;3.03;1.63;;;;;;;18.70;93.66;99346.72;5128432;28;20039;-82
2023/05/29 02:08:12;;;;;;;6.72;2.45;;;;;;;18.79;93.48;99343.56;5130921;27;20163;-83
2023/05/29 02:10:37;;;;;;;3.75;2.05;;;;;;;18.84;93.37;99361.16;5129880;27;20051;-82
2023/05/29 02:13:03;;;;;;;3.05;1.73;;;;;;;18.77;93.38;99342.78;5130684;28;20460;-81
2023/05/29 02:15:28;;;;;;;4.03;1.98;;;;;;;18.86;94.19;99356.63;5130434;27;20081;-82
2023/05/29 02:17:54;;;;;;;5.28;2.45;;;;;;;18.85;94.42;99358.44;5130555;27;20034;-82
2023/05/29 02:20:19;;;;;;;6.18;1.88;;;;;;;18.82;94.10;99361.25;5129890;27;20105;-82
2023/05/29 02:22:45;;;;;;;4.63;1.95;;;;;;;18.82;93.82;99347.88;5130133;27;20063;-82
2023/05/29 02:25:11;;;;;;;2.95;1.70;;;;;;;18.85;94.54;99386.97;5130384;27;20054;-82
2023/05/29 02:27:36;;;;;;;8.88;2.95;;;;;;;18.91;94.50;99386.66;5130117;27;20031;-81
2023/05/29 02:30:02;;;;;;;9.93;6.85;;;;;;;18.63;95.16;99340.00;5130884;27;20492;-82
2023/05/29 02:32:29;;;;;;;7.13;4.15;;;;;;;18.72;95.15;99355.53;5133942;27;20469;-81
2023/05/29 02:34:54;;;;;;;5.47;2.72;;;;;;;18.67;94.30;99344.22;5133329;27;20035;-82
2023/05/29 02:37:20;;;;;;;3.53;2.20;;;;;;;18.84;94.35;99370.03;5134259;27;20084;-81
2023/05/29 02:39:45;;;;;;;6.97;2.15;;;;;;;18.52;94.81;99335.25;5133994;27;20495;-81
2023/05/29 02:42:11;;;;;;;7.05;3.33;;;;;;;18.79;95.05;99383.63;5133552;27;20536;-82
2023/05/29 02:44:36;;;;;;;11.15;2.10;;;;;;;18.90;94.56;99388.44;5133788;27;20106;-81
2023/05/29 02:47:02;;;;;;;7.60;2.92;;;;;;;18.70;94.77;99373.44;5133461;27;20027;-83
2023/05/29 02:49:27;;;;;;;2.95;2.45;;;;;;;18.75;94.70;99375.88;5132946;27;20035;-81
2023/05/29 02:51:56;;;;;;;3.58;2.33;;;;;;;18.69;94.91;99382.44;5133872;27;20023;-81
2023/05/29 02:54:25;;;;;;;6.80;2.88;;;;;;;18.60;95.64;99369.56;5133217;27;20036;-81
2023/05/29 02:56:51;;;;;;;6.60;2.03;;;;;;;18.61;95.55;99377.50;5133431;27;20480;-81
2023/05/29 02:59:17;;;;;;;4.80;2.55;;;;;;;18.53;95.54;99370.81;5133247;27;20471;-81
2023/05/29 03:01:42;;;;;;;4.25;2.42;;;;;;;18.68;94.69;99371.81;5133313;27;20047;-80
2023/05/29 03:04:09;;;;;;;3.97;2.60;;;;;;;18.66;95.06;99379.03;5132864;27;20043;-79
2023/05/29 03:06:36;;;;;;;5.25;2.70;;;;;;;18.59;96.10;99400.72;5133602;27;20034;-79
2023/05/29 03:09:02;;;;;;;12.25;3.30;;;;;;;18.41;96.01;99362.53;5132424;27;20031;-80
2023/05/29 03:11:28;;;;;;;8.77;3.78;;;;;;;18.54;96.26;99396.59;5133717;27;20045;-79
2023/05/29 03:13:54;;;;;;;9.60;3.30;;;;;;;18.38;96.13;99362.69;5133353;27;20027;-79
2023/05/29 03:16:21;;;;;;;7.85;3.33;;;;;;;18.48;95.95;99375.56;5133137;27;20027;-79
2023/05/29 03:18:46;;;;;;;6.05;2.72;;;;;;;18.40;96.86;99383.97;5132526;27;20079;-79
2023/05/29 03:21:12;;;;;;;2.70;1.77;;;;;;;18.45;97.07;99402.41;5133540;27;20512;-80
2023/05/29 03:23:37;;;;;;;2.83;1.98;;;;;;;18.42;96.75;99396.28;5132899;27;20076;-80
2023/05/29 03:26:05;;;;;;;2.67;1.92;;;;;;;18.36;96.77;99398.41;5132067;27;20070;-79
2023/05/29 03:28:31;;;;;;;3.38;2.13;;;;;;;18.29;97.16;99381.84;5131837;27;20024;-79
2023/05/29 03:30:56;;;;;;;4.72;2.33;;;;;;;18.24;97.80;99378.53;5131387;27;20057;-80
2023/05/29 03:33:22;;;;;;;4.07;2.40;;;;;;;18.24;97.63;99389.22;5132704;27;20027;-78
2023/05/29 03:35:47;;;;;;;4.18;2.13;;;;;;;18.35;96.02;99400.22;5132227;27;20027;-78
2023/05/29 03:38:13;;;;;;;6.38;2.70;;;;;;;18.33;96.25;99402.09;5131888;27;20031;-78
2023/05/29 03:40:38;;;;;;;8.40;3.22;;;;;;;18.22;96.26;99373.28;5130134;27;20140;-78
2023/05/29 03:43:04;;;;;;;3.53;1.95;;;;;;;18.25;96.20;99370.44;5130994;27;20030;-80
2023/05/29 03:45:29;;;;;;;3.53;1.88;;;;;;;18.39;96.41;99406.25;5131864;27;20023;-79
2023/05/29 03:47:55;;;;;;;6.53;2.25;;;;;;;18.54;96.07;99418.81;5131306;27;20775;-80
2023/05/29 03:50:20;;;;;;;4.28;2.10;;;;;;;18.56;94.63;99387.53;5132009;27;20019;-82
2023/05/29 03:52:46;;;;;;;4.57;2.42;;;;;;;18.52;95.18;99379.75;5132294;27;20058;-80
2023/05/29 03:55:12;;;;;;;4.20;2.03;;;;;;;18.71;94.68;99395.69;5132331;27;20079;-80
2023/05/29 03:57:41;;;;;;;4.68;2.35;;;;;;;18.78;93.45;99400.63;5130206;27;20855;-80
2023/05/29 04:00:11;;;;;;;4.97;2.80;;;;;;;18.91;93.37;99414.22;5131448;27;20027;-80
2023/05/29 04:02:40;;;;;;;4.43;2.30;;;;;;;18.87;92.71;99395.75;5118723;27;20134;-81
2023/05/29 04:05:07;;;;;;;3.80;2.33;;;;;;;18.99;93.04;99427.16;5124361;27;20047;-80
2023/05/29 04:07:37;;;;;;;4.22;1.73;;;;;;;18.99;92.91;99432.50;5118858;27;20027;-81
2023/05/29 04:10:03;;;;;;;4.88;2.92;;;;;;;18.75;92.87;99387.44;5125851;27;20477;-82
2023/05/29 04:12:28;;;;;;;4.43;2.42;;;;;;;19.02;92.98;99428.81;5126111;27;20095;-82
2023/05/29 04:14:54;;;;;;;4.65;2.03;;;;;;;18.82;92.82;99395.13;5126357;27;20035;-82
2023/05/29 04:17:19;;;;;;;3.53;2.47;;;;;;;18.83;92.50;99404.84;5128456;27;20105;-83
2023/05/29 04:19:45;;;;;;;5.18;2.45;;;;;;;18.75;92.32;99411.47;5131199;27;20124;-81
2023/05/29 04:22:11;;;;;;;3.17;2.15;;;;;;;18.82;93.91;99444.06;5131581;27;20031;-82
2023/05/29 04:24:36;;;;;;;8.55;3.35;;;;;;;18.61;93.94;99414.88;5130991;27;20476;-81
2023/05/29 04:27:02;;;;;;;5.20;2.67;;;;;;;18.42;94.77;99382.91;5128732;27;20093;-80
2023/05/29 04:29:28;;;;;;;2.58;1.67;;;;;;;18.76;94.26;99437.25;5130040;27;20112;-80
2023/05/29 04:31:55;;;;;;;10.43;2.83;;;;;;;18.88;93.66;99440.25;5130526;27;20118;-81
2023/05/29 04:34:21;;;;;;;4.20;2.03;;;;;;;18.77;93.43;99411.41;5128781;27;20110;-81
2023/05/29 04:36:47;;;;;;;4.75;2.28;;;;;;;18.68;95.11;99420.75;5110123;28;20027;-81
2023/05/29 04:39:13;;;;;;;6.72;2.25;;;;;;;18.60;95.36;99417.63;5119577;27;20065;-83
2023/05/29 04:41:40;;;;;;;4.93;2.47;;;;;;;18.71;95.10;99425.94;5130014;27;20039;-80
2023/05/29 04:44:06;;;;;;;4.57;2.40;;;;;;;18.88;94.75;99432.25;5130502;27;20037;-79
2023/05/29 04:46:31;;;;;;;11.52;3.17;;;;;;;18.94;93.92;99434.59;5122812;27;20039;-81
2023/05/29 04:48:57;;;;;;;5.00;2.75;;;;;;;19.00;94.05;99458.31;5115665;27;20193;-80
2023/05/29 04:51:23;;;;;;;2.95;2.63;;;;;;;19.07;92.50;99442.78;5124028;27;20476;-80
2023/05/29 04:53:51;;;;;;;4.60;2.03;;;;;;;19.02;92.61;99435.03;5120719;27;20083;-82
2023/05/29 04:56:18;;;;;;;6.28;2.83;;;;;;;19.23;91.98;99478.47;5111913;27;20028;-81
2023/05/29 04:58:44;;;;;;;4.40;2.92;;;;;;;19.08;91.04;99439.19;5113208;27;20043;-83
2023/05/29 05:01:14;;;;;;;6.85;2.88;;;;;;;19.23;91.07;99461.53;5122827;27;20040;-81
2023/05/29 05:03:42;;;;;;;7.82;2.10;;;;;;;19.25;90.82;99465.00;5112974;27;20466;-82
2023/05/29 05:06:07;;;;;;;6.65;2.58;;;;;;;19.07;91.79;99443.66;5115256;27;20117;-82
2023/05/29 05:08:34;;;;;;;4.80;2.85;;;;;;;19.27;91.94;99473.78;5111612;27;20557;-83
2023/05/29 05:11:00;;;;;;;5.68;2.72;;;;;;;19.04;91.88;99440.28;5125747;27;20038;-82
2023/05/29 05:13:26;;;;;;;3.08;1.90;;;;;;;19.21;91.26;99458.09;5119661;27;20409;-82
2023/05/29 05:15:52;;;;;;;3.70;2.35;;;;;;;19.45;89.82;99478.13;5128618;27;20032;-81
2023/05/29 05:18:17;;;;;;;8.35;3.15;;;;;;;19.20;90.80;99459.91;5122176;27;20453;-82
2023/05/29 05:20:43;;;;;;;3.97;2.58;;;;;;;19.27;90.82;99466.63;5120876;28;20020;-81
2023/05/29 05:23:09;;;;;;;2.85;2.25;;;;;;;19.47;90.33;99488.75;5130374;28;20049;-82
2023/05/29 05:25:35;;;;;;;3.97;2.45;;;;;;;19.41;89.32;99470.38;5121974;28;20056;-82
2023/05/29 05:28:02;;;;;;;5.97;2.25;;;;;;;19.45;89.64;99486.16;5118385;27;20077;-82
2023/05/29 05:30:28;;;;;;;2.33;1.38;;;;;;;19.37;90.21;99472.34;5121931;27;20118;-82
2023/05/29 05:32:53;;;;;;;2.55;1.70;;;;;;;19.35;90.47;99462.69;5125612;28;20462;-82
2023/05/29 05:35:19;;;;;;;8.75;2.13;;;;;;;19.40;91.45;99480.22;5129202;28;20027;-82
2023/05/29 05:37:44;;;;;;;6.85;1.92;;;;;;;19.09;90.43;99432.88;5129887;27;20058;-83
2023/05/29 05:40:10;;;;;;;6.72;3.00;;;;;;;19.47;89.78;99500.31;5130158;27;20050;-83
2023/05/29 05:42:36;;;;;;;4.25;2.17;;;;;;;19.42;89.17;99488.16;5130625;27;20506;-82
2023/05/29 05:45:02;;;;;;;4.38;2.28;;;;;;;19.17;90.71;99459.19;5116581;27;20027;-83
2023/05/29 05:47:28;;;;;;;4.35;1.92;;;;;;;19.34;89.50;99440.44;5129434;28;20027;-83
2023/05/29 05:49:54;;;;;;;6.13;3.03;;;;;;;19.48;89.70;99453.03;5129984;27;20103;-83
2023/05/29 05:52:20;;;;;;;6.70;3.90;;;;;;;19.30;91.15;99463.78;5130309;27;20476;-83
2023/05/29 05:54:45;;;;;;;5.03;2.97;;;;;;;19.10;92.40;99474.72;5116348;27;20028;-84
2023/05/29 05:57:11;;;;;;;5.50;3.55;;;;;;;19.16;89.41;99436.94;5118285;28;20480;-85
2023/05/29 05:59:36;;;;;;;7.45;2.83;;;;;;;19.20;89.76;99491.09;5114876;28;20028;-83
2023/05/29 06:02:03;;;;;;;4.57;2.95;;;;;;;19.26;88.70;99456.91;5114189;28;20489;-83
2023/05/29 06:04:29;;;;;;;2.40;1.58;;;;;;;19.37;88.86;99455.44;5110290;28;20093;-84
2023/05/29 06:06:55;;;;;;;5.07;2.45;;;;;;;19.73;87.45;99481.94;5115824;27;20027;-83
2023/05/29 06:09:21;;;;;;;8.80;3.17;;;;;;;19.61;87.12;99464.75;5124975;27;20027;-83
2023/05/29 06:11:47;;;;;;;5.53;3.08;;;;;;;19.79;87.74;99488.81;5116586;27;20038;-82
2023/05/29 06:14:13;;;;;;;5.75;3.28;;;;;;;19.74;87.56;99469.41;5131143;27;20032;-82
2023/05/29 06:16:39;;;;;;;4.70;2.70;;;;;;;19.87;87.20;99469.66;5114729;27;20106;-83
2023/05/29 06:19:04;;;;;;;4.57;3.00;;;;;;;20.04;86.30;99478.41;5115075;27;20095;-84
2023/05/29 06:21:30;;;;;;;3.95;2.42;;;;;;;20.04;86.19;99485.59;5120589;27;20469;-85
2023/05/29 06:23:55;;;;;;;6.18;2.53;;;;;;;20.00;85.31;99466.19;5125218;27;20436;-86
2023/05/29 06:26:21;;;;;;;4.35;2.35;;;;;;;19.88;87.88;99466.88;5124497;27;20042;-90
2023/05/29 06:28:46;;;;;;;7.22;3.40;;;;;;;19.84;88.62;99476.88;5133386;27;20026;-85
2023/05/29 06:31:12;;;;;;;5.95;2.35;;;;;;;19.76;88.21;99484.44;5129617;27;20027;-85
2023/05/29 06:33:37;;;;;;;4.60;2.78;;;;;;;19.82;87.06;99496.66;5129712;27;20034;-85
2023/05/29 06:36:03;;;;;;;6.03;3.05;;;;;;;20.02;86.89;99516.94;5125065;27;20076;-86
2023/05/29 06:38:29;;;;;;;4.55;2.65;;;;;;;19.75;86.83;99471.16;5123178;27;20433;-86
2023/05/29 06:40:55;;;;;;;8.02;2.95;;;;;;;19.93;87.42;99509.44;5129191;27;20039;-88
2023/05/29 06:43:20;;;;;;;6.38;2.85;;;;;;;19.72;87.66;99490.91;5121978;27;20027;-84
2023/05/29 06:45:46;;;;;;;9.80;4.20;;;;;;;19.58;88.42;99513.09;5132683;27;20103;-83
2023/05/29 06:48:11;;;;;;;7.63;3.05;;;;;;;19.78;88.22;99506.66;5129968;27;20896;-83
2023/05/29 06:50:36;;;;;;;5.80;3.22;;;;;;;19.64;87.84;99495.84;5112281;27;20397;-84
2023/05/29 06:53:02;;;;;;;6.43;3.22;;;;;;;19.71;88.23;99458.88;5128265;27;20469;-84
2023/05/29 06:55:27;;;;;;;5.60;3.00;;;;;;;19.88;88.17;99476.69;5132654;27;20035;-84
2023/05/29 06:57:53;;;;;;;4.30;2.65;;;;;;;19.88;88.20;99471.34;5128177;27;20134;-84
2023/05/29 07:00:18;;;;;;;5.57;3.30;;;;;;;20.03;87.27;99463.31;5112200;28;20485;-83
2023/05/29 07:02:44;;;;;;;5.82;3.30;;;;;;;20.11;85.61;99510.19;5112317;28;20570;-85
2023/05/29 07:05:09;;;;;;;8.75;4.03;;;;;;;20.13;85.12;99484.22;5117979;27;20028;-84
2023/05/29 07:07:35;;;;;;;7.53;4.32;;;;;;;20.16;84.98;99446.53;5125674;27;20393;-85
2023/05/29 07:10:00;;;;;;;7.97;3.10;;;;;;;20.37;85.26;99496.16;5113310;27;20397;-85
2023/05/29 07:12:26;;;;;;;5.10;2.92;;;;;;;20.84;84.21;99510.38;5111977;28;20027;-85
2023/05/29 07:14:52;;;;;;;4.05;2.25;;;;;;;20.74;83.45;99511.88;5110532;28;20076;-83
2023/05/29 07:17:17;;;;;;;4.65;2.72;;;;;;;20.42;84.28;99486.97;5110560;27;20400;-84
2023/05/29 07:19:43;;;;;;;5.47;2.92;;;;;;;20.73;83.59;99515.53;5126612;27;20034;-83
2023/05/29 07:22:08;;;;;;;12.63;3.83;;;;;;;20.41;82.78;99469.19;5120138;27;20059;-85
2023/05/29 07:24:34;;;;;;;4.50;2.65;;;;;;;20.64;84.60;99494.63;5110834;28;20031;-84
2023/05/29 07:26:59;;;;;;;7.20;2.58;;;;;;;20.75;84.42;99493.03;5111408;28;20035;-84
2023/05/29 07:29:25;;;;;;;4.65;2.72;;;;;;;20.57;83.71;99475.34;5111897;27;20481;-83
2023/05/29 07:31:51;;;;;;;5.68;2.55;;;;;;;20.89;83.96;99468.06;5114757;27;20031;-83
2023/05/29 07:34:17;;;;;;;4.30;2.50;;;;;;;20.89;83.05;99478.78;5110618;28;20028;-84
2023/05/29 07:37:04;;;;;;;5.30;3.00;;;;;;;20.91;83.52;99484.94;5110687;27;20034;-83
2023/05/29 07:39:30;;;;;;;5.97;2.80;;;;;;;21.27;83.38;99477.38;5114727;27;20046;-84
2023/05/29 07:41:55;;;;;;;6.13;3.28;;;;;;;21.38;81.99;99466.84;5119249;27;20089;-85
2023/05/29 07:44:22;;;;;;;4.95;3.10;;;;;;;21.59;78.28;99515.59;5124568;27;20022;-85
2023/05/29 07:46:47;;;;;;;3.65;2.55;;;;;;;21.06;75.75;99517.97;5131663;27;20472;-84
2023/05/29 07:49:13;;;;;;;4.18;2.10;;;;;;;21.14;77.68;99498.72;5131364;27;20169;-85
2023/05/29 07:51:38;;;;;;;3.55;2.22;;;;;;;21.57;75.14;99522.91;5121566;27;20087;-85
2023/05/29 07:54:05;;;;;;;2.75;2.17;;;;;;;21.52;76.94;99495.50;5125722;27;20109;-85
2023/05/29 07:56:30;;;;;;;3.78;2.70;;;;;;;21.49;75.69;99498.38;5131839;27;20016;-83
2023/05/29 07:58:57;;;;;;;4.90;2.60;;;;;;;21.76;77.13;99508.31;5125594;27;20024;-85
2023/05/29 08:01:23;;;;;;;3.33;2.05;;;;;;;22.09;75.93;99516.00;5123430;27;20098;-84
2023/05/29 08:03:48;;;;;;;4.35;2.17;;;;;;;22.39;74.06;99493.47;5130274;27;20133;-85
2023/05/29 08:06:14;;;;;;;6.93;2.00;;;;;;;22.47;75.25;99509.06;5131346;27;20567;-84
2023/05/29 08:08:47;;;;;;;3.63;2.10;;;;;;;22.32;73.18;99478.72;5132031;27;20042;-84
2023/05/29 08:11:13;;;;;;;4.88;2.20;;;;;;;22.81;72.20;99523.75;5132032;27;20198;-84
2023/05/29 08:13:38;;;;;;;4.70;2.67;;;;;;;22.84;69.19;99493.13;5131744;27;20488;-84
2023/05/29 08:16:04;;;;;;;3.58;1.85;;;;;;;22.89;70.06;99483.78;5131697;27;20024;-84
2023/05/29 08:18:32;;;;;;;7.95;2.75;;;;;;;23.30;69.30;99507.91;5125650;27;20039;-85
2023/05/29 08:20:58;;;;;;;3.30;2.15;;;;;;;23.52;65.20;99501.84;5128316;27;20035;-85
2023/05/29 08:23:23;;;;;;;5.13;2.45;;;;;;;22.97;69.86;99487.75;5130924;27;20130;-86
2023/05/29 08:25:49;;;;;;;2.58;1.85;;;;;;;23.40;68.55;99484.72;5122424;27;20187;-85
2023/05/29 08:28:15;;;;;;;4.68;2.10;;;;;;;24.04;65.82;99506.16;5131502;27;20079;-84
2023/05/29 08:30:40;;;;;;;4.60;2.30;;;;;;;22.96;66.26;99456.44;5131821;27;20033;-84
2023/05/29 08:33:06;;;;;;;3.80;1.70;;;;;;;23.52;65.47;99467.69;5131021;27;20109;-86
2023/05/29 08:35:32;;;;;;;3.75;1.90;;;;;;;23.73;65.31;99505.66;5129515;27;20037;-84
2023/05/29 08:37:58;;;;;;;2.67;1.42;;;;;;;23.58;63.00;99483.41;5129775;27;20424;-85
2023/05/29 08:40:24;;;;;;;3.58;1.70;;;;;;;23.37;64.10;99479.56;5131123;27;20027;-85
2023/05/29 08:43:04;;;;;;;3.67;1.63;;;;;;;24.10;63.24;99500.31;5128248;27;20469;-86
2023/05/29 08:45:33;;;;;;;9.55;1.83;;;;;;;24.15;63.15;99474.88;5123119;27;20035;-86
2023/05/29 08:48:00;;;;;;;4.13;1.40;;;;;;;24.34;60.37;99499.44;5110453;28;20068;-87
2023/05/29 08:50:26;;;;;;;3.35;1.75;;;;;;;24.44;61.89;99464.56;5110708;28;20027;-85
2023/05/29 08:52:52;;;;;;;3.50;2.20;;;;;;;23.82;60.50;99461.06;5110096;28;20038;-86
2023/05/29 08:55:17;;;;;;;2.97;1.70;;;;;;;24.30;59.18;99493.41;5110142;28;20110;-86
2023/05/29 08:57:44;;;;;;;3.17;1.77;;;;;;;24.56;59.02;99503.19;5110732;28;20106;-85
2023/05/29 09:00:15;;;;;;;2.35;1.40;;;;;;;24.24;58.08;99484.94;5110150;28;20063;-85
2023/05/29 09:02:41;;;;;;;3.42;1.42;;;;;;;24.59;58.35;99466.13;5110529;28;20164;-86
2023/05/29 09:05:08;;;;;;;3.05;1.52;;;;;;;24.96;59.72;99489.34;5118644;27;20038;-85
2023/05/29 09:07:38;;;;;;;2.38;1.75;;;;;;;25.23;58.75;99480.09;5108392;28;20050;-86
2023/05/29 09:10:06;;;;;;;2.60;1.65;;;;;;;24.53;58.79;99471.97;5117245;27;20031;-85
2023/05/29 09:12:33;;;;;;;5.18;2.40;;;;;;;24.15;57.74;99466.78;5131159;27;20031;-86
2023/05/29 09:14:58;;;;;;;2.33;1.48;;;;;;;24.03;59.43;99447.84;5130604;27;20023;-88
2023/05/29 09:17:24;;;;;;;4.22;2.25;;;;;;;23.84;58.06;99458.25;5131132;27;20515;-85
2023/05/29 09:19:50;;;;;;;3.15;1.90;;;;;;;24.82;56.87;99475.13;5130851;28;20023;-85
2023/05/29 09:22:16;;;;;;;2.95;1.73;;;;;;;24.77;58.68;99454.88;5130715;27;20485;-85
2023/05/29 09:24:45;;;;;;;2.58;1.70;;;;;;;24.44;56.48;99451.09;5130829;27;20038;-86
2023/05/29 09:27:11;;;;;;;2.63;1.73;;;;;;;25.02;52.90;99457.38;5130958;27;20035;-87
2023/05/29 09:29:41;;;;;;;6.28;1.83;;;;;;;25.23;54.13;99445.84;5130887;27;20035;-86
2023/05/29 09:32:11;;;;;;;7.43;2.60;;;;;;;25.52;56.00;99480.47;5130963;27;20023;-86
2023/05/29 09:34:37;;;;;;;2.03;1.20;;;;;;;24.62;52.36;99465.88;5130673;27;20050;-87
2023/05/29 09:37:08;;;;;;;3.08;1.55;;;;;;;24.93;57.10;99465.31;5130406;27;20057;-88
2023/05/29 09:39:49;;;;;;;3.72;2.08;;;;;;;25.01;57.10;99442.16;5121772;27;20031;-86
2023/05/29 09:42:18;;;;;;;2.78;1.52;;;;;;;25.17;57.50;99436.38;5129236;27;20045;-88
2023/05/29 09:44:53;;;;;;;5.00;2.20;;;;;;;25.25;50.62;99461.91;5123203;27;20066;-88
2023/05/29 09:47:19;;;;;;;;;;;;;;;25.70;54.47;99470.00;5124362;27;20515;-87
2023/05/29 09:49:46;;;;;;;4.00;1.55;;;;;;;25.48;54.20;99425.00;5114972;27;19912;-88
2023/05/29 09:52:18;;;;;;;7.35;2.22;;;;;;;25.94;54.29;99431.16;5122055;27;20023;-87
2023/05/29 09:54:48;;;;;;;3.08;1.70;;;;;;;25.83;53.04;99448.28;5115375;27;20109;-93
2023/05/29 09:57:16;;;;;;;3.45;1.60;;;;;;;25.72;50.38;99457.25;5112898;27;20064;-85
2023/05/29 09:59:50;;;;;;;3.95;1.73;;;;;;;24.86;52.62;99429.03;5112421;27;20031;-87
2023/05/29 10:02:16;;;;;;;4.07;1.90;;;;;;;24.37;53.66;99450.69;5117264;27;20473;-87
2023/05/29 10:04:43;;;;;;;3.05;1.73;;;;;;;23.72;54.75;99382.78;5121995;27;20057;-87
2023/05/29 10:07:31;;;;;;;2.28;1.42;;;;;;;24.03;53.00;99433.53;5128078;27;20043;-86
2023/05/29 10:10:03;;;;;;;2.35;1.30;;;;;;;24.02;56.93;99421.03;5133192;27;20024;-87
2023/05/29 10:12:30;;;;;;;3.15;1.88;;;;;;;24.37;54.64;99417.50;5132988;27;20137;-86
2023/05/29 10:15:00;;;;;;;3.35;1.73;;;;;;;24.71;52.08;99421.16;5116618;27;20028;-87
2023/05/29 10:17:32;;;;;;;2.97;2.15;;;;;;;24.98;53.73;99409.19;5112848;27;20031;-87
2023/05/29 10:20:02;;;;;;;3.45;1.90;;;;;;;25.08;54.22;99410.16;5111792;28;20435;-87
2023/05/29 10:22:28;;;;;;;3.33;1.40;;;;;;;24.99;52.93;99392.00;5112898;28;20039;-86
2023/05/29 10:24:56;;;;;;;1.83;1.23;;;;;;;25.02;53.13;99421.44;5113020;28;20031;-86
2023/05/29 10:27:22;;;;;;;3.17;1.45;;;;;;;25.02;52.65;99427.69;5112641;28;20030;-85
2023/05/29 10:30:38;;;;;;;3.40;1.73;;;;;;;25.45;53.11;99419.84;5112738;28;20019;-87
2023/05/29 10:33:26;;;;;;;3.35;1.77;;;;;;;25.34;51.73;99386.47;5054168;28;20040;-87
2023/05/29 10:36:12;;;;;;;3.83;1.90;;;;;;;25.24;50.06;99435.91;5069638;28;20122;-86
2023/05/29 10:38:41;;;;;;;2.97;1.65;;;;;;;24.66;50.06;99426.06;5086533;28;20028;-86
2023/05/29 10:41:27;;;;;;;2.78;1.58;;;;;;;25.22;50.85;99432.47;5073073;28;21690;-86
2023/05/29 10:44:30;;;;;;;5.15;1.70;;;;;;;26.14;51.23;99399.81;5089500;28;20059;-86
2023/05/29 10:46:57;;;;;;;3.70;2.38;;;;;;;25.99;57.20;99405.50;5089337;28;20508;-86
2023/05/29 10:49:23;;;;;;;2.80;1.55;;;;;;;25.98;47.92;99419.13;5084198;28;20059;-86
2023/05/29 10:51:49;;;;;;;3.00;1.67;;;;;;;26.45;50.85;99411.56;5059606;28;20036;-87
2023/05/29 10:54:16;;;;;;;1.85;1.33;;;;;;;26.57;44.56;99404.22;5101320;28;20032;-86
2023/05/29 10:56:45;;;;;;;2.35;1.55;;;;;;;26.68;45.65;99422.25;5089083;28;20040;-87
2023/05/29 10:59:10;;;;;;;2.70;1.88;;;;;;;26.66;54.31;99389.91;5071670;28;20028;-87
2023/05/29 11:01:38;;;;;;;1.75;1.33;;;;;;;27.01;46.28;99401.38;5089159;28;20417;-85
2023/05/29 11:04:15;;;;;;;3.20;1.58;;;;;;;26.91;44.75;99421.13;5088723;28;20047;-87
2023/05/29 11:06:41;;;;;;;1.98;1.63;;;;;;;26.14;45.16;99395.25;5086661;28;20040;-85
2023/05/29 11:09:26;;;;;;;2.20;1.35;;;;;;;26.36;45.18;99401.53;5094971;28;20035;-87
2023/05/29 11:12:35;;;;;;;3.08;1.40;;;;;;;26.82;42.85;99408.41;5119298;27;20070;-86
2023/05/29 11:15:10;;;;;;;4.18;2.40;;;;;;;26.40;46.11;99378.63;5117062;27;20120;-85
2023/05/29 11:17:38;;;;;;;3.08;1.60;;;;;;;26.68;46.44;99384.38;5127549;27;20042;-85
2023/05/29 11:20:07;;;;;;;3.20;1.85;;;;;;;26.81;48.29;99398.56;5132303;27;20449;-85
2023/05/29 11:22:56;;;;;;;8.68;1.90;;;;;;;26.99;48.55;99385.25;5132023;27;20031;-87
2023/05/29 11:25:22;;;;;;;9.10;2.45;;;;;;;27.06;44.20;99394.53;5132163;27;20059;-88
2023/05/29 11:27:47;;;;;;;2.50;1.45;;;;;;;27.12;45.25;99390.44;5132246;27;20214;-88
2023/05/29 11:30:13;;;;;;;5.68;2.72;;;;;;;27.44;44.11;99362.34;5132322;27;20034;-90
2023/05/29 11:32:40;;;;;;;3.35;1.92;;;;;;;27.68;42.90;99359.25;5132472;27;20510;-87
2023/05/29 11:35:09;;;;;;;3.03;2.35;;;;;;;27.16;43.94;99381.06;5132515;27;20034;-85
2023/05/29 12:12:17;;;;;;;1.83;1.10;;;;;;;27.37;45.05;99348.50;5108386;28;20062;-85